Childwall, United Kingdom
Current Conditions -  °F | °C
As of 6:20 PM on Sunday 25 Jan 2015 (Local Time) from EGGP Reporting Station
Clear Clear  
Wind Chill: 45°   Ceiling: Unl
Heat Index: 48°   Visibility: 6mi
Dew Point: 45°   Wind: 7mph
Humidity: 87%   Direction: 240°WSW
Pressure: 30.21"   Gusts: NA
Location:  53.39°N, 2.89°W
Report Text: EGGP 251820Z 24006KT CAVOK 09/07 Q1023
Loading
Personal Weather Stations






























Interactive Weather Map New forecast layout! Learn more

10-Day Weather Forecast

Advertisements
Track Severe Weather on mobile